createdAt,value
2023-01-22T00:01:01.230Z,100059.94
2023-01-22T00:03:27.982Z,100056.44
2023-01-22T00:05:54.479Z,100048.06
2023-01-22T00:08:21.179Z,100048.66
2023-01-22T00:10:51.127Z,100040.63
2023-01-22T00:13:18.228Z,100044.94
2023-01-22T00:15:46.234Z,100042.03
2023-01-22T00:18:12.784Z,100049.47
2023-01-22T00:20:41.530Z,100042.50
2023-01-22T00:23:08.262Z,100042.50
2023-01-22T00:25:35.018Z,100046.78
2023-01-22T00:28:01.651Z,100045.97
2023-01-22T00:30:28.252Z,100047.63
2023-01-22T00:32:56.103Z,100037.72
2023-01-22T00:35:22.757Z,100038.31
2023-01-22T00:37:49.364Z,100058.06
2023-01-22T00:40:16.872Z,100030.31
2023-01-22T00:42:43.568Z,100033.44
2023-01-22T00:45:13.184Z,100030.97
2023-01-22T00:47:39.751Z,100032.28
2023-01-22T00:50:09.431Z,100029.59
2023-01-22T00:52:36.181Z,100030.66
2023-01-22T00:55:02.707Z,100029.13
2023-01-22T00:57:29.376Z,100033.31
2023-01-22T00:59:55.925Z,100028.78
2023-01-22T01:02:22.660Z,100032.50
2023-01-22T01:04:49.206Z,100026.34
2023-01-22T01:07:17.271Z,100033.56
2023-01-22T01:09:43.833Z,100035.19
2023-01-22T01:12:10.414Z,100030.06
2023-01-22T01:14:37.045Z,100032.28
2023-01-22T01:17:03.640Z,100034.16
2023-01-22T01:19:30.294Z,100029.25
2023-01-22T01:21:59.983Z,100032.75
2023-01-22T01:24:28.201Z,100032.50
2023-01-22T01:26:54.693Z,100029.03
2023-01-22T01:29:21.283Z,100023.44
2023-01-22T01:31:47.863Z,100030.66
2023-01-22T01:34:14.561Z,100036.22
2023-01-22T01:36:48.652Z,100027.97
2023-01-22T01:39:16.233Z,100029.03
2023-01-22T01:41:44.292Z,100034.38
2023-01-22T01:44:13.438Z,100031.91
2023-01-22T01:46:43.563Z,100031.09
2023-01-22T01:49:17.646Z,100030.88
2023-01-22T01:51:44.219Z,100027.16
2023-01-22T01:54:10.840Z,100035.19
2023-01-22T01:56:41.113Z,100037.03
2023-01-22T01:59:14.280Z,100028.78
2023-01-22T02:01:41.075Z,100034.38
2023-01-22T02:04:08.052Z,100027.38
2023-01-22T02:06:34.646Z,100023.69
2023-01-22T02:09:02.338Z,100032.84
2023-01-22T02:11:30.462Z,100029.34
2023-01-22T02:14:01.601Z,100029.59
2023-01-22T02:16:29.785Z,100031.69
2023-01-22T02:18:56.501Z,100027.84
2023-01-22T02:21:30.896Z,100025.16
2023-01-22T02:23:57.530Z,100025.75
2023-01-22T02:26:24.597Z,100030.53
2023-01-22T02:28:51.308Z,100025.16
2023-01-22T02:31:17.887Z,100028.88
2023-01-22T02:33:44.470Z,100035.06
2023-01-22T02:36:11.011Z,100021.34
2023-01-22T02:38:39.021Z,100022.63
2023-01-22T02:41:05.641Z,100024.25
2023-01-22T02:43:32.343Z,100019.72
2023-01-22T02:45:59.051Z,100028.53
2023-01-22T02:48:25.740Z,100025.88
2023-01-22T02:50:52.289Z,100025.06
2023-01-22T02:53:18.879Z,100019.72
2023-01-22T02:55:46.998Z,100021.59
2023-01-22T02:58:13.572Z,100019.72
2023-01-22T03:00:40.305Z,100016.81
2023-01-22T03:03:06.873Z,100015.97
2023-01-22T03:05:33.636Z,100020.28
2023-01-22T03:08:00.174Z,100019.47
2023-01-22T03:10:26.913Z,100022.97
2023-01-22T03:12:54.809Z,100027.84
2023-01-22T03:15:21.399Z,100026.00
2023-01-22T03:17:47.957Z,100026.81
2023-01-22T03:20:14.776Z,100026.00
2023-01-22T03:22:41.334Z,100024.59
2023-01-22T03:25:08.292Z,100027.84
2023-01-22T03:27:34.793Z,100022.72
2023-01-22T03:30:02.973Z,100025.19
2023-01-22T03:32:29.549Z,100028.66
2023-01-22T03:34:56.048Z,100030.88
2023-01-22T03:37:22.656Z,100022.03
2023-01-22T03:39:49.226Z,100030.06
2023-01-22T03:42:15.780Z,100028.22
2023-01-22T03:44:42.440Z,100030.31
2023-01-22T03:47:10.390Z,100036.78
2023-01-22T03:49:36.943Z,100032.03
2023-01-22T03:52:03.521Z,100026.91
2023-01-22T03:54:30.040Z,100034.69
2023-01-22T03:56:56.717Z,100030.97
2023-01-22T03:59:23.248Z,100025.63
2023-01-22T04:01:49.968Z,100030.75
2023-01-22T04:04:17.887Z,100036.44
2023-01-22T04:06:44.443Z,100034.56
2023-01-22T04:09:11.017Z,100036.19
2023-01-22T04:11:37.777Z,100031.09
2023-01-22T04:14:04.322Z,100035.16
2023-01-22T04:16:30.904Z,100035.06
2023-01-22T04:18:57.574Z,100041.44
2023-01-22T04:21:25.482Z,100042.84
2023-01-22T04:23:52.362Z,100048.19
2023-01-22T04:26:19.095Z,100046.81
2023-01-22T04:28:45.615Z,100051.09
2023-01-22T04:31:12.285Z,100048.19
2023-01-22T04:33:39.054Z,100048.44
2023-01-22T04:36:05.852Z,100048.66
2023-01-22T04:38:33.797Z,100048.06
2023-01-22T04:41:00.495Z,100047.50
2023-01-22T04:43:27.047Z,100049.34
2023-01-22T04:45:53.645Z,100046.22
2023-01-22T04:48:20.272Z,100049.59
2023-01-22T04:50:47.356Z,100040.50
2023-01-22T04:53:13.967Z,100038.66
2023-01-22T04:55:42.041Z,100041.59
2023-01-22T04:58:08.853Z,100037.28
2023-01-22T05:00:35.490Z,100034.94
2023-01-22T05:03:03.932Z,100041.09
2023-01-22T05:05:31.507Z,100039.47
2023-01-22T05:07:59.019Z,100040.28
2023-01-22T05:10:25.933Z,100030.97
2023-01-22T05:12:54.135Z,100041.91
2023-01-22T05:15:25.215Z,100037.72
2023-01-22T05:17:52.808Z,100044.94
2023-01-22T05:20:20.136Z,100039.81
2023-01-22T05:22:46.835Z,100035.75
2023-01-22T05:25:13.412Z,100046.44
2023-01-22T05:27:40.298Z,100060.84
2023-01-22T05:30:09.868Z,100044.00
2023-01-22T05:32:36.503Z,100045.84
2023-01-22T05:35:03.546Z,100057.38
2023-01-22T05:37:31.310Z,100052.28
2023-01-22T05:39:58.222Z,100063.78
2023-01-22T05:42:24.739Z,100067.50
2023-01-22T05:44:51.484Z,100066.19
2023-01-22T05:47:19.534Z,100070.50
2023-01-22T05:49:46.215Z,100065.16
2023-01-22T05:52:12.773Z,100064.84
2023-01-22T05:54:39.313Z,100072.38
2023-01-22T05:57:06.574Z,100077.94
2023-01-22T05:59:33.187Z,100064.56
2023-01-22T06:01:59.785Z,100074.00
2023-01-22T06:04:28.284Z,100065.66
2023-01-22T06:06:54.868Z,100068.06
2023-01-22T06:09:21.887Z,100071.56
2023-01-22T06:11:48.505Z,100067.38
2023-01-22T06:14:15.405Z,100072.28
2023-01-22T06:16:42.002Z,100072.00
2023-01-22T06:19:09.114Z,100067.75
2023-01-22T06:21:37.081Z,100076.91
2023-01-22T06:24:04.181Z,100079.59
2023-01-22T06:26:30.742Z,100079.13
2023-01-22T06:28:57.237Z,100076.91
2023-01-22T06:31:23.999Z,100079.34
2023-01-22T06:33:50.641Z,100089.59
2023-01-22T06:36:17.305Z,100093.31
2023-01-22T06:38:45.145Z,100093.53
2023-01-22T06:41:11.718Z,100093.53
2023-01-22T06:43:38.294Z,100096.91
2023-01-22T06:46:05.151Z,100098.06
2023-01-22T06:48:31.761Z,100099.47
2023-01-22T06:50:59.003Z,100097.03
2023-01-22T06:53:25.954Z,100102.97
2023-01-22T06:55:53.906Z,100107.00
2023-01-22T06:58:20.566Z,100101.56
2023-01-22T07:00:47.069Z,100105.28
2023-01-22T07:03:15.156Z,100115.41
2023-01-22T07:05:42.003Z,100113.75
2023-01-22T07:08:08.585Z,100113.75
2023-01-22T07:10:35.374Z,100116.66
2023-01-22T07:13:03.287Z,100120.97
2023-01-22T07:15:30.120Z,100121.56
2023-01-22T07:17:56.730Z,100122.81
2023-01-22T07:20:23.715Z,100125.50
2023-01-22T07:22:50.874Z,100129.00
2023-01-22T07:25:18.474Z,100121.34
2023-01-22T07:27:45.075Z,100129.13
2023-01-22T07:30:14.234Z,100121.09
2023-01-22T07:32:40.920Z,100126.44
2023-01-22T07:35:08.059Z,100125.41
2023-01-22T07:37:35.045Z,100137.16
2023-01-22T07:40:01.801Z,100143.91
2023-01-22T07:42:28.361Z,100136.66
2023-01-22T07:44:55.073Z,100142.84
2023-01-22T07:47:22.953Z,100147.50
2023-01-22T07:49:49.613Z,100143.19
2023-01-22T07:52:16.243Z,100147.88
2023-01-22T07:54:42.792Z,100148.19
2023-01-22T07:57:09.288Z,100148.56
2023-01-22T07:59:35.883Z,100141.69
2023-01-22T08:02:03.597Z,100148.44
2023-01-22T08:04:31.769Z,100150.88
2023-01-22T08:06:58.528Z,100145.84
2023-01-22T08:09:25.090Z,100154.00
2023-01-22T08:11:52.147Z,100160.19
2023-01-22T08:14:19.237Z,100156.78
2023-01-22T08:16:45.849Z,100156.34
2023-01-22T08:19:12.651Z,100158.56
2023-01-22T08:21:40.697Z,100161.00
2023-01-22T08:24:07.749Z,100163.78
2023-01-22T08:26:34.258Z,100166.22
2023-01-22T08:29:03.979Z,100165.50
2023-01-22T08:31:32.252Z,100167.50
2023-01-22T08:33:59.317Z,100168.09
2023-01-22T08:36:26.411Z,100173.75
2023-01-22T08:38:54.703Z,100169.34
2023-01-22T08:41:21.706Z,100174.34
2023-01-22T08:43:48.349Z,100177.56
2023-01-22T08:46:15.233Z,100185.50
2023-01-22T08:48:41.754Z,100187.81
2023-01-22T08:51:08.349Z,100192.09
2023-01-22T08:53:35.098Z,100192.66
2023-01-22T08:56:03.199Z,100198.38
2023-01-22T08:58:29.762Z,100192.31
2023-01-22T09:00:56.305Z,100185.84
2023-01-22T09:03:23.355Z,100194.91
2023-01-22T09:05:49.900Z,100188.59
2023-01-22T09:08:16.797Z,100198.91
2023-01-22T09:10:43.867Z,100203.66
2023-01-22T09:13:11.878Z,100198.72
2023-01-22T09:15:40.566Z,100204.78
2023-01-22T09:18:07.662Z,100204.19
2023-01-22T09:20:34.434Z,100198.44
2023-01-22T09:23:01.006Z,100213.41
2023-01-22T09:25:27.601Z,100210.75
2023-01-22T09:27:57.655Z,100212.84
2023-01-22T09:30:25.718Z,100210.75
2023-01-22T09:32:52.579Z,100219.03
2023-01-22T09:35:19.309Z,100225.56
2023-01-22T09:37:46.034Z,100228.66
2023-01-22T09:40:23.312Z,100225.03
2023-01-22T09:42:52.050Z,100231.56
2023-01-22T09:45:24.078Z,100226.28
2023-01-22T09:47:54.721Z,100226.75
2023-01-22T09:50:23.955Z,100237.16
2023-01-22T09:52:52.349Z,100234.09
2023-01-22T09:55:22.099Z,100239.75
2023-01-22T09:57:51.876Z,100236.53
2023-01-22T10:00:21.988Z,100236.09
2023-01-22T10:02:54.191Z,100226.25
2023-01-22T10:05:29.324Z,100239.78
2023-01-22T10:08:00.444Z,100234.69
2023-01-22T10:10:28.585Z,100230.97
2023-01-22T10:12:59.167Z,100230.03
2023-01-22T10:15:25.878Z,100229.03
2023-01-22T10:17:57.180Z,100232.97
2023-01-22T10:20:23.990Z,100235.22
2023-01-22T10:22:52.989Z,100237.66
2023-01-22T10:25:19.584Z,100232.25
2023-01-22T10:27:46.605Z,100229.94
2023-01-22T10:30:20.952Z,100237.81
2023-01-22T10:33:00.127Z,100241.22
2023-01-22T10:35:27.757Z,100235.13
2023-01-22T10:37:55.957Z,100237.75
2023-01-22T10:40:24.985Z,100239.28
2023-01-22T10:43:05.827Z,100239.28
2023-01-22T10:45:32.764Z,100239.84
2023-01-22T10:48:13.173Z,100235.47
2023-01-22T10:50:39.865Z,100240.44
2023-01-22T10:53:17.525Z,100244.91
2023-01-22T10:55:52.791Z,100233.69
2023-01-22T10:58:21.451Z,100238.06
2023-01-22T11:00:57.136Z,100230.47
2023-01-22T11:03:32.080Z,100230.06
2023-01-22T11:06:02.574Z,100234.53
2023-01-22T11:08:35.369Z,100238.38
2023-01-22T11:11:05.841Z,100248.69
2023-01-22T11:13:45.083Z,100246.56
2023-01-22T11:16:16.271Z,100237.97
2023-01-22T11:18:51.406Z,100238.50
2023-01-22T11:21:20.844Z,100236.00
2023-01-22T11:23:53.223Z,100235.94
2023-01-22T11:26:32.881Z,100241.78
2023-01-22T11:29:10.766Z,100243.75
2023-01-22T11:31:50.373Z,100241.63
2023-01-22T11:34:35.684Z,100240.56
2023-01-22T11:37:11.474Z,100235.13
2023-01-22T11:39:52.903Z,100235.34
2023-01-22T11:42:32.378Z,100237.81
2023-01-22T11:45:11.265Z,100227.31
2023-01-22T11:48:01.120Z,100227.69
2023-01-22T11:50:34.442Z,100239.47
2023-01-22T11:53:21.197Z,100228.84
2023-01-22T11:56:02.792Z,100229.91
2023-01-22T11:58:41.715Z,100227.47
2023-01-22T12:01:17.717Z,100236.81
2023-01-22T12:04:20.448Z,100233.47
2023-01-22T12:07:09.781Z,100238.09
2023-01-22T12:09:45.520Z,100223.31
2023-01-22T12:12:23.951Z,100229.97
2023-01-22T12:15:06.240Z,100228.91
2023-01-22T12:17:43.977Z,100218.06
2023-01-22T12:20:38.123Z,100218.41
2023-01-22T12:23:11.539Z,100214.34
2023-01-22T12:25:44.727Z,100225.31
2023-01-22T12:28:17.036Z,100227.91
2023-01-22T12:30:50.711Z,100225.53
2023-01-22T12:33:20.980Z,100238.16
2023-01-22T12:35:50.143Z,100232.53
2023-01-22T12:38:29.523Z,100226.03
2023-01-22T12:41:07.912Z,100229.78
2023-01-22T12:43:41.528Z,100228.50
2023-01-22T12:46:14.756Z,100228.13
2023-01-22T12:48:49.862Z,100235.13
2023-01-22T12:51:26.565Z,100228.88
2023-01-22T12:53:54.568Z,100227.78
2023-01-22T12:56:32.468Z,100226.66
2023-01-22T12:58:59.295Z,100233.88
2023-01-22T13:01:33.266Z,100232.72
2023-01-22T13:04:01.606Z,100227.63
2023-01-22T13:06:34.192Z,100229.97
2023-01-22T13:09:02.788Z,100230.44
2023-01-22T13:11:33.472Z,100230.66
2023-01-22T13:14:15.612Z,100234.41
2023-01-22T13:16:51.773Z,100239.91
2023-01-22T13:19:21.490Z,100244.13
2023-01-22T13:21:49.042Z,100244.34
2023-01-22T13:24:19.093Z,100254.25
2023-01-22T13:26:52.625Z,100252.03
2023-01-22T13:29:22.167Z,100245.31
2023-01-22T13:31:53.495Z,100258.34
2023-01-22T13:34:20.370Z,100250.31
2023-01-22T13:36:48.986Z,100251.94
2023-01-22T13:39:20.053Z,100255.69
2023-01-22T13:41:49.795Z,100250.91
2023-01-22T13:44:18.910Z,100257.31
2023-01-22T13:46:45.801Z,100260.00
2023-01-22T13:49:23.566Z,100252.63
2023-01-22T13:51:50.655Z,100256.63
2023-01-22T13:54:25.553Z,100265.94
2023-01-22T13:56:52.308Z,100268.03
2023-01-22T13:59:22.094Z,100268.25
2023-01-22T14:01:49.444Z,100268.25
2023-01-22T14:04:34.844Z,100263.63
2023-01-22T14:07:01.793Z,100275.72
2023-01-22T14:09:31.937Z,100266.06
2023-01-22T14:11:59.603Z,100264.44
2023-01-22T14:14:27.053Z,100272.34
2023-01-22T14:16:53.634Z,100277.13
2023-01-22T14:19:20.326Z,100263.19
2023-01-22T14:21:47.023Z,100269.09
2023-01-22T14:24:13.553Z,100273.66
2023-01-22T14:26:42.659Z,100277.13
2023-01-22T14:29:09.280Z,100284.84
2023-01-22T14:31:35.910Z,100280.06
2023-01-22T14:34:02.736Z,100279.81
2023-01-22T14:36:29.291Z,100278.19
2023-01-22T14:38:55.977Z,100276.44
2023-01-22T14:41:22.553Z,100276.34
2023-01-22T14:43:50.632Z,100275.53
2023-01-22T14:46:17.212Z,100275.03
2023-01-22T14:48:43.813Z,100279.13
2023-01-22T14:51:10.666Z,100284.25
2023-01-22T14:53:37.655Z,100288.78
2023-01-22T14:56:04.964Z,100289.59
2023-01-22T14:58:31.671Z,100287.16
2023-01-22T15:00:59.803Z,100296.47
2023-01-22T15:03:29.405Z,100296.59
2023-01-22T15:05:56.114Z,100295.41
2023-01-22T15:08:22.929Z,100299.41
2023-01-22T15:10:49.456Z,100301.50
2023-01-22T15:13:16.203Z,100301.72
2023-01-22T15:15:43.012Z,100298.00
2023-01-22T15:18:12.821Z,100300.06
2023-01-22T15:20:39.796Z,100305.44
2023-01-22T15:23:06.480Z,100306.25
2023-01-22T15:25:33.170Z,100307.53
2023-01-22T15:27:59.863Z,100314.75
2023-01-22T15:30:26.635Z,100312.66
2023-01-22T15:32:53.219Z,100314.19
2023-01-22T15:35:21.379Z,100313.13
2023-01-22T15:37:47.979Z,100307.19
2023-01-22T15:40:14.972Z,100318.94
2023-01-22T15:42:41.485Z,100319.16
2023-01-22T15:45:09.130Z,100326.38
2023-01-22T15:47:35.704Z,100329.66
2023-01-22T15:50:02.306Z,100337.91
2023-01-22T15:52:30.203Z,100331.97
2023-01-22T15:54:57.471Z,100342.13
2023-01-22T15:57:24.280Z,100350.38
2023-01-22T15:59:50.775Z,100350.59
2023-01-22T16:02:17.428Z,100347.69
2023-01-22T16:04:44.046Z,100343.38
2023-01-22T16:07:10.687Z,100342.56
2023-01-22T16:09:38.765Z,100343.63
2023-01-22T16:12:06.011Z,100354.09
2023-01-22T16:14:32.560Z,100352.25
2023-01-22T16:16:59.341Z,100357.00
2023-01-22T16:19:26.041Z,100354.91
2023-01-22T16:21:52.769Z,100358.03
2023-01-22T16:24:19.390Z,100358.63
2023-01-22T16:26:47.447Z,100361.53
2023-01-22T16:29:14.309Z,100360.13
2023-01-22T16:31:40.858Z,100360.94
2023-01-22T16:34:10.145Z,100367.72
2023-01-22T16:36:37.594Z,100369.78
2023-01-22T16:39:04.795Z,100372.47
2023-01-22T16:41:33.187Z,100380.97
2023-01-22T16:44:06.943Z,100374.81
2023-01-22T16:46:36.261Z,100372.94
2023-01-22T16:49:05.275Z,100381.22
2023-01-22T16:51:36.795Z,100382.84
2023-01-22T16:54:04.800Z,100385.53
2023-01-22T16:56:31.414Z,100390.88
2023-01-22T16:58:58.397Z,100384.72
2023-01-22T17:01:28.844Z,100389.25
2023-01-22T17:03:55.676Z,100389.47
2023-01-22T17:06:25.117Z,100389.47
2023-01-22T17:08:52.739Z,100392.16
2023-01-22T17:11:19.931Z,100393.19
2023-01-22T17:13:46.545Z,100405.75
2023-01-22T17:16:13.166Z,100404.94
2023-01-22T17:18:41.126Z,100400.63
2023-01-22T17:21:10.439Z,100406.19
2023-01-22T17:23:37.077Z,100409.69
2023-01-22T17:26:07.741Z,100399.25
2023-01-22T17:28:34.463Z,100406.19
2023-01-22T17:31:03.893Z,100413.19
2023-01-22T17:33:30.622Z,100417.97
2023-01-22T17:35:59.891Z,100417.38
2023-01-22T17:38:26.860Z,100419.69
2023-01-22T17:40:53.497Z,100412.47
2023-01-22T17:43:20.174Z,100414.56
2023-01-22T17:45:46.973Z,100413.50
2023-01-22T17:48:13.856Z,100418.03
2023-01-22T17:50:40.527Z,100417.00
2023-01-22T17:53:08.630Z,100410.38
2023-01-22T17:55:35.381Z,100424.38
2023-01-22T17:58:02.019Z,100425.84
2023-01-22T18:00:28.951Z,100426.91
2023-01-22T18:02:55.755Z,100432.03
2023-01-22T18:05:22.702Z,100432.84
2023-01-22T18:07:49.423Z,100432.03
2023-01-22T18:10:18.120Z,100431.44
2023-01-22T18:12:44.925Z,100442.72
2023-01-22T18:15:12.022Z,100433.06
2023-01-22T18:17:38.845Z,100441.31
2023-01-22T18:20:06.504Z,100432.72
2023-01-22T18:22:33.346Z,100437.25
2023-01-22T18:25:00.092Z,100441.31
2023-01-22T18:27:28.191Z,100444.22
2023-01-22T18:29:54.856Z,100445.50
2023-01-22T18:32:21.692Z,100446.88
2023-01-22T18:34:48.590Z,100454.91
2023-01-22T18:37:15.330Z,100453.88
2023-01-22T18:39:41.947Z,100446.09
2023-01-22T18:42:08.703Z,100446.09
2023-01-22T18:44:38.805Z,100444.81
2023-01-22T18:47:05.645Z,100450.75
2023-01-22T18:49:32.332Z,100454.25
2023-01-22T18:51:59.427Z,100458.78
2023-01-22T18:54:26.181Z,100456.34
2023-01-22T18:56:53.053Z,100453.66
2023-01-22T18:59:19.893Z,100458.78
2023-01-22T19:01:48.107Z,100458.13
2023-01-22T19:04:14.884Z,100461.25
2023-01-22T19:06:41.750Z,100460.88
2023-01-22T19:09:10.243Z,100462.72
2023-01-22T19:11:39.430Z,100466.44
2023-01-22T19:14:06.499Z,100459.00
2023-01-22T19:16:33.980Z,100460.88
2023-01-22T19:19:04.052Z,100462.72
2023-01-22T19:21:31.331Z,100464.16
2023-01-22T19:24:00.470Z,100470.19
2023-01-22T19:26:29.287Z,100476.81
2023-01-22T19:28:57.866Z,100487.28
2023-01-22T19:31:26.609Z,100486.69
2023-01-22T19:33:55.704Z,100492.03
2023-01-22T19:36:26.509Z,100490.19
2023-01-22T19:38:53.507Z,100494.50
2023-01-22T19:41:20.196Z,100493.69
2023-01-22T19:43:46.941Z,100495.31
2023-01-22T19:46:13.999Z,100498.44
2023-01-22T19:48:41.198Z,100501.56
2023-01-22T19:51:10.378Z,100498.53
2023-01-22T19:53:38.799Z,100493.75
2023-01-22T19:56:16.277Z,100495.38
2023-01-22T19:58:42.890Z,100493.53
2023-01-22T20:01:10.521Z,100493.31
2023-01-22T20:03:37.104Z,100503.41
2023-01-22T20:06:05.445Z,100498.88
2023-01-22T20:08:32.077Z,100504.81
2023-01-22T20:11:00.629Z,100502.75
2023-01-22T20:13:28.858Z,100509.97
2023-01-22T20:15:56.075Z,100511.81
2023-01-22T20:18:23.830Z,100511.00
2023-01-22T20:20:52.267Z,100521.50
2023-01-22T20:23:19.158Z,100527.06
2023-01-22T20:25:45.670Z,100532.84
2023-01-22T20:28:13.601Z,100527.06
2023-01-22T20:30:40.444Z,100523.34
2023-01-22T20:33:07.262Z,100525.19
2023-01-22T20:35:33.841Z,100531.59
2023-01-22T20:38:00.755Z,100525.19
2023-01-22T20:40:27.585Z,100531.00
2023-01-22T20:42:54.212Z,100521.09
2023-01-22T20:45:22.287Z,100531.00
2023-01-22T20:47:48.925Z,100524.75
2023-01-22T20:50:15.833Z,100538.97
2023-01-22T20:55:19.821Z,100540.00
2023-01-22T20:57:46.527Z,100538.81
2023-01-22T21:00:14.338Z,100537.97
2023-01-22T21:02:42.234Z,100544.16
2023-01-22T21:05:09.551Z,100546.84
2023-01-22T21:07:36.517Z,100552.41
2023-01-22T21:10:03.340Z,100552.19
2023-01-22T21:12:29.975Z,100553.00
2023-01-22T21:14:56.593Z,100549.72
2023-01-22T21:17:23.210Z,100554.03
2023-01-22T21:19:51.179Z,100549.94
2023-01-22T21:22:17.776Z,100556.13
2023-01-22T21:24:44.434Z,100546.22
2023-01-22T21:27:10.987Z,100553.81
2023-01-22T21:29:37.592Z,100550.94
2023-01-22T21:32:04.341Z,100553.59
2023-01-22T21:34:30.958Z,100560.00
2023-01-22T21:36:59.400Z,100556.28
2023-01-22T21:39:27.949Z,100558.97
2023-01-22T21:41:55.273Z,100553.22
2023-01-22T21:44:22.008Z,100563.94
2023-01-22T21:46:49.139Z,100562.44
2023-01-22T21:49:18.080Z,100554.44
2023-01-22T21:51:46.713Z,100565.72
2023-01-22T21:54:16.625Z,100559.56
2023-01-22T21:56:43.220Z,100560.81
2023-01-22T21:59:10.184Z,100566.56
2023-01-22T22:01:37.597Z,100564.09
2023-01-22T22:04:05.763Z,100561.84
2023-01-22T22:06:33.288Z,100560.81
2023-01-22T22:09:02.061Z,100566.16
2023-01-22T22:11:30.208Z,100562.66
2023-01-22T22:13:56.752Z,100558.34
2023-01-22T22:16:23.495Z,100558.97
2023-01-22T22:18:50.168Z,100556.72
2023-01-22T22:21:16.789Z,100559.56
2023-01-22T22:23:43.497Z,100559.78
2023-01-22T22:26:10.880Z,100560.81
2023-01-22T22:28:39.006Z,100559.38
2023-01-22T22:31:08.118Z,100562.88
2023-01-22T22:33:34.689Z,100565.34
2023-01-22T22:36:01.413Z,100561.84
2023-01-22T22:38:28.045Z,100566.38
2023-01-22T22:40:58.890Z,100565.13
2023-01-22T22:43:25.799Z,100567.81
2023-01-22T22:45:54.019Z,100569.44
2023-01-22T22:48:20.649Z,100574.78
2023-01-22T22:50:47.432Z,100576.66
2023-01-22T22:53:14.187Z,100573.97
2023-01-22T22:55:41.005Z,100578.50
2023-01-22T22:58:09.459Z,100565.94
2023-01-22T23:00:36.104Z,100570.25
2023-01-22T23:03:04.349Z,100574.78
2023-01-22T23:05:30.910Z,100571.31
2023-01-22T23:07:57.495Z,100578.03
2023-01-22T23:10:24.047Z,100578.50
2023-01-22T23:12:50.624Z,100578.28
2023-01-22T23:15:17.157Z,100571.53
2023-01-22T23:17:43.698Z,100576.44
2023-01-22T23:20:13.305Z,100569.06
2023-01-22T23:22:39.981Z,100581.41
2023-01-22T23:25:07.004Z,100570.69
2023-01-22T23:27:33.716Z,100586.75
2023-01-22T23:30:00.275Z,100583.69
2023-01-22T23:32:28.891Z,100575.66
2023-01-22T23:34:55.467Z,100581.41
2023-01-22T23:37:23.435Z,100590.47
2023-01-22T23:39:50.178Z,100583.03
2023-01-22T23:42:16.703Z,100579.16
2023-01-22T23:44:43.249Z,100585.56
2023-01-22T23:47:09.943Z,100588.00
2023-01-22T23:49:36.942Z,100587.19
2023-01-22T23:52:03.902Z,100587.88
2023-01-22T23:54:31.893Z,100586.03
2023-01-22T23:56:58.621Z,100578.59
2023-01-22T23:59:25.304Z,100583.69
